TimeMST,TemperatureF,Dew PointF,Humidity,Sea Level PressureIn,VisibilityMPH,Wind Direction,Wind SpeedMPH,Gust SpeedMPH,PrecipitationIn,Events,Conditions,WindDirDegrees,DateUTC
12:53 AM,30.0,27.0,88,30.04,9.0,SE,4.6,-,0.00,,Overcast,140,2013-02-08 07:53:00
1:53 AM,28.9,26.1,89,30.04,10.0,Calm,Calm,-,N/A,,Mostly Cloudy,0,2013-02-08 08:53:00
2:53 AM,30.0,26.1,85,30.06,10.0,Calm,Calm,-,N/A,,Overcast,0,2013-02-08 09:53:00
3:00 AM,28.4,26.6,93,29.98,10.0,Calm,Calm,-,N/A,,Overcast,0,2013-02-08 10:00:00
3:04 AM,28.4,26.6,93,29.98,10.0,Calm,Calm,-,N/A,,Overcast,0,2013-02-08 10:04:00
3:53 AM,30.0,27.0,88,30.06,10.0,SSE,4.6,-,N/A,,Overcast,150,2013-02-08 10:53:00
4:17 AM,30.2,28.4,93,29.98,9.0,South,3.5,-,N/A,,Overcast,170,2013-02-08 11:17:00
4:51 AM,30.2,28.4,93,29.99,9.0,Calm,Calm,-,N/A,,Overcast,0,2013-02-08 11:51:00
4:53 AM,30.2,28.4,93,29.99,9.0,Calm,Calm,-,N/A,,Overcast,0,2013-02-08 11:53:00
5:53 AM,28.9,28.0,96,30.07,9.0,East,4.6,-,N/A,,Mostly Cloudy,80,2013-02-08 12:53:00
6:05 AM,28.4,26.6,93,29.99,9.0,NE,3.5,-,N/A,,Scattered Clouds,50,2013-02-08 13:05:00
6:53 AM,28.0,26.1,92,30.07,10.0,Calm,Calm,-,N/A,,Partly Cloudy,0,2013-02-08 13:53:00
7:09 AM,28.4,26.6,93,29.99,10.0,South,3.5,-,N/A,,Mostly Cloudy,180,2013-02-08 14:09:00
7:44 AM,28.4,26.6,93,30.00,8.0,Calm,Calm,-,N/A,,Overcast,0,2013-02-08 14:44:00
7:53 AM,28.9,27.0,92,30.09,9.0,Calm,Calm,-,N/A,,Overcast,0,2013-02-08 14:53:00
8:29 AM,30.2,26.6,86,30.01,9.0,Calm,Calm,-,N/A,,Overcast,0,2013-02-08 15:29:00
8:53 AM,30.0,27.0,88,30.11,10.0,Calm,Calm,-,N/A,,Overcast,0,2013-02-08 15:53:00
9:29 AM,30.2,26.6,86,30.02,10.0,SE,3.5,-,N/A,,Overcast,130,2013-02-08 16:29:00
9:46 AM,30.2,26.6,86,30.02,10.0,ESE,4.6,-,N/A,,Overcast,120,2013-02-08 16:46:00
9:53 AM,30.9,27.0,85,30.12,10.0,ESE,4.6,-,N/A,,Overcast,120,2013-02-08 16:53:00
10:53 AM,33.1,28.9,85,30.11,10.0,SSE,4.6,-,N/A,,Overcast,150,2013-02-08 17:53:00
11:53 AM,34.0,30.0,85,30.09,10.0,SW,4.6,-,N/A,,Mostly Cloudy,230,2013-02-08 18:53:00
12:53 PM,37.9,30.9,76,30.06,10.0,WNW,8.1,-,N/A,,Overcast,290,2013-02-08 19:53:00
1:53 PM,37.9,28.9,70,30.04,10.0,North,6.9,-,N/A,,Overcast,350,2013-02-08 20:53:00
2:53 PM,37.9,28.0,68,30.04,10.0,NNW,8.1,-,N/A,,Overcast,330,2013-02-08 21:53:00
3:53 PM,37.9,28.9,70,30.04,10.0,North,6.9,-,N/A,,Overcast,360,2013-02-08 22:53:00
4:53 PM,37.9,28.0,68,30.03,10.0,North,6.9,-,N/A,,Overcast,360,2013-02-08 23:53:00
5:53 PM,35.1,30.0,82,30.04,10.0,WNW,4.6,-,N/A,,Overcast,290,2013-02-09 00:53:00
6:53 PM,36.0,28.0,73,30.05,10.0,Calm,Calm,-,N/A,,Overcast,0,2013-02-09 01:53:00
7:53 PM,35.1,28.9,78,30.04,10.0,Calm,Calm,-,N/A,,Overcast,0,2013-02-09 02:53:00
8:53 PM,34.0,28.0,79,30.05,10.0,Calm,Calm,-,N/A,,Overcast,0,2013-02-09 03:53:00
9:53 PM,35.1,26.1,70,30.06,10.0,NNW,5.8,-,N/A,,Overcast,330,2013-02-09 04:53:00
10:53 PM,34.0,25.0,70,30.06,10.0,NNW,9.2,-,N/A,,Overcast,330,2013-02-09 05:53:00
11:53 PM,33.1,23.0,66,30.06,10.0,NNW,9.2,-,N/A,,Overcast,330,2013-02-09 06:53:00